createdAt,value
2018-02-19T00:01:14.756Z,4.30
2018-02-19T00:03:44.256Z,6.33
2018-02-19T00:06:13.434Z,7.30
2018-02-19T00:08:42.647Z,7.03
2018-02-19T00:11:11.782Z,5.90
2018-02-19T00:13:41.801Z,4.80
2018-02-19T00:16:10.800Z,6.00
2018-02-19T00:18:39.745Z,7.10
2018-02-19T00:21:08.724Z,6.27
2018-02-19T00:23:37.704Z,4.60
2018-02-19T00:26:06.618Z,5.30
2018-02-19T00:28:35.697Z,5.73
2018-02-19T00:31:04.649Z,6.70
2018-02-19T00:33:33.575Z,5.43
2018-02-19T00:36:03.430Z,6.20
2018-02-19T00:38:32.371Z,4.00
2018-02-19T00:41:01.430Z,4.63
2018-02-19T00:43:31.541Z,5.50
2018-02-19T00:46:01.967Z,4.97
2018-02-19T00:48:30.948Z,4.20
2018-02-19T00:50:59.946Z,5.27
2018-02-19T00:53:28.987Z,5.07
2018-02-19T00:55:59.975Z,3.60
2018-02-19T00:58:30.152Z,4.87
2018-02-19T01:00:59.149Z,5.60
2018-02-19T01:03:28.782Z,4.10
2018-02-19T01:05:58.092Z,4.00
2018-02-19T01:08:27.057Z,7.60
2018-02-19T01:10:56.822Z,4.50
2018-02-19T01:13:25.969Z,4.27
2018-02-19T01:15:54.983Z,4.00
2018-02-19T01:18:24.021Z,4.17
2018-02-19T01:20:54.107Z,5.50
2018-02-19T01:23:23.240Z,3.80
2018-02-19T01:25:53.150Z,3.70
2018-02-19T01:28:23.185Z,4.13
2018-02-19T01:30:52.559Z,3.30
2018-02-19T01:33:23.104Z,4.10
2018-02-19T01:35:53.903Z,3.13
2018-02-19T01:38:23.130Z,4.10
2018-02-19T01:40:53.076Z,3.60
2018-02-19T01:43:22.207Z,4.80
2018-02-19T01:45:51.374Z,4.20
2018-02-19T01:48:20.559Z,4.50
2018-02-19T01:50:49.686Z,5.17
2018-02-19T01:53:18.816Z,3.50
2018-02-19T01:55:48.660Z,3.53
2018-02-19T01:58:17.841Z,3.13
2018-02-19T02:00:47.155Z,3.47
2018-02-19T02:03:17.029Z,3.73
2018-02-19T02:05:46.127Z,4.20
2018-02-19T02:08:15.418Z,3.47
2018-02-19T02:10:44.593Z,4.60
2018-02-19T02:13:13.655Z,3.77
2018-02-19T02:15:47.203Z,3.77
2018-02-19T02:18:16.405Z,4.97
2018-02-19T02:20:45.645Z,3.50
2018-02-19T02:23:14.905Z,3.73
2018-02-19T02:25:44.047Z,3.93
2018-02-19T02:28:13.184Z,3.60
2018-02-19T02:30:42.250Z,3.17
2018-02-19T02:33:12.063Z,5.80
2018-02-19T02:35:41.121Z,3.43
2018-02-19T02:38:10.211Z,4.10
2018-02-19T02:40:39.326Z,3.70
2018-02-19T02:43:08.549Z,3.60
2018-02-19T02:45:38.960Z,4.20
2018-02-19T02:48:09.058Z,4.27
2018-02-19T02:50:38.909Z,3.47
2018-02-19T02:53:08.133Z,3.63
2018-02-19T02:55:37.512Z,3.60
2018-02-19T02:58:06.557Z,3.90
2018-02-19T03:00:35.656Z,3.70
2018-02-19T03:03:04.785Z,5.83
2018-02-19T03:05:34.617Z,3.10
2018-02-19T03:08:04.456Z,3.30
2018-02-19T03:10:34.886Z,3.83
2018-02-19T03:13:04.865Z,3.67
2018-02-19T03:15:34.264Z,3.90
2018-02-19T03:18:04.114Z,3.93
2018-02-19T03:20:33.306Z,4.13
2018-02-19T03:23:02.390Z,4.17
2018-02-19T03:25:31.421Z,4.20
2018-02-19T03:28:00.578Z,3.30
2018-02-19T03:30:29.648Z,4.07
2018-02-19T03:32:59.432Z,3.80
2018-02-19T03:35:29.760Z,3.77
2018-02-19T03:37:59.689Z,4.27
2018-02-19T03:40:29.532Z,4.10
2018-02-19T03:42:59.634Z,4.67
2018-02-19T03:45:29.617Z,5.97
2018-02-19T03:47:58.744Z,3.53
2018-02-19T03:50:28.585Z,3.10
2018-02-19T03:52:57.610Z,4.23
2018-02-19T03:55:26.754Z,4.30
2018-02-19T03:57:56.691Z,6.30
2018-02-19T04:00:25.715Z,3.77
2018-02-19T04:02:54.818Z,4.37
2018-02-19T04:05:24.017Z,3.77
2018-02-19T04:07:54.662Z,4.60
2018-02-19T04:10:24.569Z,3.20
2018-02-19T04:12:54.108Z,3.00
2018-02-19T04:15:23.941Z,3.43
2018-02-19T04:17:53.166Z,3.53
2018-02-19T04:20:22.752Z,3.70
2018-02-19T04:22:51.916Z,3.20
2018-02-19T04:25:20.956Z,3.20
2018-02-19T04:27:51.185Z,4.20
2018-02-19T04:30:20.803Z,3.73
2018-02-19T04:32:50.007Z,3.77
2018-02-19T04:35:19.985Z,3.47
2018-02-19T04:37:49.071Z,3.37
2018-02-19T04:40:18.192Z,3.00
2018-02-19T04:42:47.624Z,3.13
2018-02-19T04:45:16.700Z,3.63
2018-02-19T04:47:45.748Z,3.30
2018-02-19T04:50:14.859Z,3.30
2018-02-19T04:52:43.938Z,3.20
2018-02-19T04:55:13.929Z,3.60
2018-02-19T04:57:43.419Z,4.70
2018-02-19T05:00:12.668Z,3.20
2018-02-19T05:02:41.798Z,3.70
2018-02-19T05:05:11.041Z,3.97
2018-02-19T05:07:40.148Z,3.33
2018-02-19T05:10:09.158Z,3.37
2018-02-19T05:12:38.269Z,3.10
2018-02-19T05:15:07.753Z,3.13
2018-02-19T05:17:36.862Z,3.30
2018-02-19T05:20:06.128Z,3.23
2018-02-19T05:22:36.462Z,3.50
2018-02-19T05:25:06.395Z,3.27
2018-02-19T05:27:35.537Z,4.20
2018-02-19T05:30:04.619Z,3.20
2018-02-19T05:32:33.694Z,3.50
2018-02-19T05:35:02.908Z,3.43
2018-02-19T05:37:32.057Z,3.10
2018-02-19T05:40:02.488Z,2.90
2018-02-19T05:42:31.656Z,3.20
2018-02-19T05:45:00.679Z,3.50
2018-02-19T05:47:29.754Z,3.20
2018-02-19T05:49:59.775Z,2.77
2018-02-19T05:52:29.215Z,2.90
2018-02-19T05:54:58.818Z,4.03
2018-02-19T05:57:28.863Z,2.90
2018-02-19T05:59:58.365Z,3.63
2018-02-19T06:02:27.460Z,3.43
2018-02-19T06:04:56.529Z,3.17
2018-02-19T06:07:25.634Z,7.47
2018-02-19T06:09:54.758Z,4.37
2018-02-19T06:12:23.792Z,3.40
2018-02-19T06:14:52.869Z,2.90
2018-02-19T06:17:22.815Z,4.10
2018-02-19T06:19:52.745Z,5.20
2018-02-19T06:22:21.856Z,3.23
2018-02-19T06:24:51.140Z,3.83
2018-02-19T06:27:20.197Z,3.53
2018-02-19T06:29:49.224Z,3.53
2018-02-19T06:32:18.328Z,3.97
2018-02-19T06:34:47.711Z,3.53
2018-02-19T06:37:16.865Z,3.70
2018-02-19T06:39:46.603Z,3.17
2018-02-19T06:42:16.789Z,4.33
2018-02-19T06:44:45.847Z,4.20
2018-02-19T06:47:14.908Z,4.07
2018-02-19T06:49:44.707Z,5.37
2018-02-19T06:52:13.997Z,5.83
2018-02-19T06:54:46.054Z,3.40
2018-02-19T06:57:15.233Z,3.87
2018-02-19T06:59:44.589Z,3.90
2018-02-19T07:02:14.672Z,4.03
2018-02-19T07:04:44.251Z,3.40
2018-02-19T07:07:13.268Z,4.37
2018-02-19T07:09:42.573Z,3.10
2018-02-19T07:12:11.672Z,3.43
2018-02-19T07:14:40.753Z,3.10
2018-02-19T07:17:09.853Z,3.50
2018-02-19T07:19:39.439Z,3.40
2018-02-19T07:22:08.709Z,4.00
2018-02-19T07:24:37.840Z,3.80
2018-02-19T07:27:06.962Z,3.10
2018-02-19T07:29:36.297Z,5.30
2018-02-19T07:32:05.347Z,4.77
2018-02-19T07:34:34.378Z,3.60
2018-02-19T07:37:03.434Z,2.70
2018-02-19T07:39:33.830Z,3.87
2018-02-19T07:42:03.672Z,3.30
2018-02-19T07:44:33.593Z,3.30
2018-02-19T07:47:02.620Z,3.83
2018-02-19T07:49:31.690Z,3.13
2018-02-19T07:52:01.052Z,3.07
2018-02-19T07:54:30.503Z,3.10
2018-02-19T07:57:00.325Z,3.83
2018-02-19T07:59:29.396Z,2.83
2018-02-19T08:01:58.532Z,3.43
2018-02-19T08:04:27.618Z,3.07
2018-02-19T08:06:57.411Z,3.70
2018-02-19T08:09:26.482Z,2.43
2018-02-19T08:11:55.812Z,4.33
2018-02-19T08:14:24.894Z,2.73
2018-02-19T08:16:53.986Z,2.57
2018-02-19T08:19:23.050Z,3.07
2018-02-19T08:21:53.761Z,3.57
2018-02-19T08:24:23.219Z,3.10
2018-02-19T08:26:52.368Z,3.83
2018-02-19T08:29:21.445Z,2.90
2018-02-19T08:31:50.570Z,3.30
2018-02-19T08:34:19.697Z,3.30
2018-02-19T08:36:48.844Z,2.40
2018-02-19T08:39:18.783Z,2.63
2018-02-19T08:41:48.324Z,2.90
2018-02-19T08:44:17.656Z,3.03
2018-02-19T08:46:47.167Z,3.50
2018-02-19T08:49:16.551Z,2.73
2018-02-19T08:51:45.626Z,2.37
2018-02-19T08:54:14.727Z,2.90
2018-02-19T08:56:43.979Z,2.60
2018-02-19T08:59:13.752Z,3.07
2018-02-19T09:01:43.181Z,2.40
2018-02-19T09:04:12.333Z,3.00
2018-02-19T09:06:41.760Z,3.90
2018-02-19T09:09:11.207Z,2.40
2018-02-19T09:11:40.323Z,3.70
2018-02-19T09:14:09.398Z,2.93
2018-02-19T09:16:38.437Z,2.63
2018-02-19T09:19:07.584Z,2.43
2018-02-19T09:21:37.006Z,2.73
2018-02-19T09:24:06.489Z,2.13
2018-02-19T09:26:35.495Z,2.30
2018-02-19T09:29:04.907Z,2.60
2018-02-19T09:31:34.016Z,3.10
2018-02-19T09:34:03.557Z,2.57
2018-02-19T09:36:32.630Z,2.70
2018-02-19T09:39:01.841Z,3.23
2018-02-19T09:41:31.476Z,3.40
2018-02-19T09:44:01.853Z,3.47
2018-02-19T09:46:31.041Z,3.20
2018-02-19T09:49:00.182Z,2.40
2018-02-19T09:51:29.278Z,2.70
2018-02-19T09:53:58.512Z,2.70
2018-02-19T09:56:27.543Z,3.07
2018-02-19T09:58:56.638Z,3.40
2018-02-19T10:01:25.792Z,2.60
2018-02-19T10:03:56.166Z,3.27
2018-02-19T10:06:25.243Z,2.60
2018-02-19T10:08:54.287Z,2.67
2018-02-19T10:11:24.476Z,2.80
2018-02-19T10:13:53.673Z,3.30
2018-02-19T10:16:23.836Z,3.20
2018-02-19T10:18:53.614Z,2.80
2018-02-19T10:21:22.788Z,4.30
2018-02-19T10:23:51.742Z,11.27
2018-02-19T10:26:21.198Z,9.80
2018-02-19T10:28:50.263Z,12.67
2018-02-19T10:31:19.388Z,13.00
2018-02-19T10:33:49.279Z,11.60
2018-02-19T10:36:18.219Z,8.73
2018-02-19T10:38:47.390Z,10.90
2018-02-19T10:41:16.522Z,13.17
2018-02-19T10:43:46.644Z,10.10
2018-02-19T10:46:15.711Z,8.63
2018-02-19T10:48:44.827Z,8.47
2018-02-19T10:51:13.851Z,9.23
2018-02-19T10:53:43.097Z,8.43
2018-02-19T10:56:12.289Z,9.40
2018-02-19T10:58:45.357Z,9.07
2018-02-19T11:01:14.571Z,8.00
2018-02-19T11:03:43.667Z,7.97
2018-02-19T11:06:12.852Z,7.73
2018-02-19T11:08:51.960Z,7.47
2018-02-19T11:27:42.713Z,5.47
2018-02-19T11:30:23.560Z,6.30
2018-02-19T11:55:42.824Z,5.80
2018-02-19T11:58:11.984Z,12.43
2018-02-19T12:00:41.085Z,5.63
2018-02-19T12:03:10.214Z,12.07
2018-02-19T12:05:40.618Z,7.40
2018-02-19T12:08:09.710Z,8.20
2018-02-19T12:10:38.868Z,12.33
2018-02-19T12:13:08.015Z,18.00
2018-02-19T12:15:37.059Z,13.63
2018-02-19T12:18:06.315Z,11.20
2018-02-19T12:20:36.205Z,11.47
2018-02-19T12:23:05.274Z,8.93
2018-02-19T12:25:34.328Z,8.10
2018-02-19T12:28:03.914Z,9.37
2018-02-19T12:30:32.928Z,12.87
2018-02-19T12:33:01.946Z,9.80
2018-02-19T12:35:31.104Z,7.70
2018-02-19T12:38:00.176Z,11.50
2018-02-19T12:40:29.250Z,8.07
2018-02-19T12:42:58.271Z,8.57
2018-02-19T12:45:27.331Z,10.40
2018-02-19T12:47:57.135Z,8.17
2018-02-19T12:50:27.199Z,10.53
2018-02-19T12:52:56.244Z,9.37
2018-02-19T12:55:26.004Z,9.80
2018-02-19T12:57:56.326Z,10.13
2018-02-19T13:00:25.498Z,8.33
2018-02-19T13:02:54.529Z,12.40
2018-02-19T13:05:23.667Z,6.37
2018-02-19T13:07:53.079Z,7.57
2018-02-19T13:10:22.199Z,6.90
2018-02-19T13:12:51.817Z,6.37
2018-02-19T13:15:20.957Z,8.20
2018-02-19T13:17:50.039Z,9.47
2018-02-19T13:20:20.007Z,6.73
2018-02-19T13:22:49.418Z,7.63
2018-02-19T13:25:18.530Z,8.50
2018-02-19T13:27:47.554Z,7.27
2018-02-19T13:30:17.242Z,10.00
2018-02-19T13:32:47.733Z,8.13
2018-02-19T13:35:17.327Z,8.60
2018-02-19T13:37:47.082Z,7.00
2018-02-19T13:40:16.669Z,8.33
2018-02-19T13:42:45.797Z,12.87
2018-02-19T13:45:14.942Z,10.30
2018-02-19T13:47:44.035Z,8.50
2018-02-19T13:50:13.172Z,9.20
2018-02-19T13:52:42.376Z,8.80
2018-02-19T13:55:11.680Z,10.20
2018-02-19T13:57:40.734Z,8.97
2018-02-19T14:00:09.939Z,10.00
2018-02-19T14:02:39.111Z,10.27
2018-02-19T14:05:08.729Z,9.57
2018-02-19T14:07:39.370Z,11.60
2018-02-19T14:10:09.128Z,9.87
2018-02-19T14:12:38.722Z,10.47
2018-02-19T14:15:09.815Z,9.83
2018-02-19T14:17:39.196Z,10.77
2018-02-19T14:20:08.250Z,8.27
2018-02-19T14:22:37.466Z,9.33
2018-02-19T14:25:06.662Z,10.07
2018-02-19T14:27:35.854Z,9.10
2018-02-19T14:30:06.174Z,10.53
2018-02-19T14:32:35.503Z,12.60
2018-02-19T14:35:04.741Z,9.87
2018-02-19T14:37:34.557Z,8.43
2018-02-19T14:40:04.686Z,8.80
2018-02-19T14:42:33.827Z,10.87
2018-02-19T14:45:03.029Z,10.13
2018-02-19T14:47:32.182Z,9.50
2018-02-19T14:50:02.118Z,8.37
2018-02-19T14:52:31.392Z,9.67
2018-02-19T14:55:00.451Z,9.80
2018-02-19T14:57:29.622Z,9.20
2018-02-19T14:59:59.721Z,9.87
2018-02-19T15:02:29.187Z,9.53
2018-02-19T15:04:58.971Z,9.83
2018-02-19T15:07:28.036Z,9.13
2018-02-19T15:09:57.589Z,8.37
2018-02-19T15:12:27.637Z,9.63
2018-02-19T15:14:56.930Z,10.40
2018-02-19T15:17:25.964Z,9.70
2018-02-19T15:19:56.497Z,9.57
2018-02-19T15:22:26.623Z,9.87
2018-02-19T15:24:55.674Z,10.47
2018-02-19T15:27:25.530Z,12.43
2018-02-19T15:29:54.594Z,8.37
2018-02-19T15:32:23.774Z,7.50
2018-02-19T15:34:54.040Z,7.60
2018-02-19T15:37:23.289Z,8.30
2018-02-19T15:39:52.456Z,8.10
2018-02-19T15:42:22.962Z,8.13
2018-02-19T15:44:52.998Z,7.50
2018-02-19T15:47:23.740Z,8.43
2018-02-19T15:49:52.942Z,7.80
2018-02-19T15:52:22.071Z,8.50
2018-02-19T15:54:51.668Z,8.83
2018-02-19T15:57:21.186Z,9.53
2018-02-19T15:59:51.039Z,8.90
2018-02-19T16:02:21.179Z,9.60
2018-02-19T16:04:51.371Z,10.20
2018-02-19T16:07:21.462Z,9.53
2018-02-19T16:09:51.141Z,10.73
2018-02-19T16:12:20.307Z,9.03
2018-02-19T16:14:49.423Z,13.27
2018-02-19T16:17:19.443Z,11.60
2018-02-19T16:19:48.476Z,8.03
2018-02-19T16:22:17.734Z,7.97
2018-02-19T16:24:46.954Z,9.10
2018-02-19T16:27:17.331Z,9.63
2018-02-19T16:29:46.566Z,9.37
2018-02-19T16:32:16.953Z,9.20
2018-02-19T16:34:46.087Z,8.50
2018-02-19T16:37:17.192Z,8.63
2018-02-19T16:39:46.309Z,9.33
2018-02-19T16:42:15.461Z,8.80
2018-02-19T16:44:44.488Z,9.27
2018-02-19T16:47:13.885Z,8.30
2018-02-19T16:49:44.044Z,7.60
2018-02-19T16:52:14.305Z,9.63
2018-02-19T16:54:44.435Z,8.50
2018-02-19T16:57:13.552Z,8.63
2018-02-19T16:59:42.701Z,8.97
2018-02-19T17:02:12.224Z,8.40
2018-02-19T17:04:41.451Z,8.00
2018-02-19T17:07:10.540Z,8.03
2018-02-19T17:09:40.036Z,7.70
2018-02-19T17:12:09.861Z,9.60
2018-02-19T17:14:39.045Z,8.70
2018-02-19T17:17:08.162Z,8.93
2018-02-19T17:19:37.590Z,8.57
2018-02-19T17:22:07.068Z,12.43
2018-02-19T17:24:36.205Z,7.80
2018-02-19T17:27:06.589Z,6.17
2018-02-19T17:29:35.687Z,6.40
2018-02-19T17:32:04.832Z,8.00
2018-02-19T17:34:34.379Z,5.80
2018-02-19T17:37:03.556Z,6.10
2018-02-19T17:39:32.910Z,6.83
2018-02-19T17:42:01.961Z,5.57
2018-02-19T17:44:31.299Z,6.17
2018-02-19T17:47:00.432Z,7.00
2018-02-19T17:49:29.570Z,6.73
2018-02-19T17:51:58.715Z,6.30
2018-02-19T17:54:27.868Z,6.97
2018-02-19T17:56:56.957Z,7.20
2018-02-19T17:59:26.077Z,6.03
2018-02-19T18:01:55.167Z,5.23
2018-02-19T18:04:24.961Z,5.87
2018-02-19T18:06:54.782Z,6.10
2018-02-19T18:09:23.981Z,5.67
2018-02-19T18:11:53.206Z,7.10
2018-02-19T18:14:22.445Z,5.13
2018-02-19T18:16:51.741Z,7.07
2018-02-19T18:19:21.400Z,4.40
2018-02-19T18:21:50.615Z,6.40
2018-02-19T18:24:19.680Z,6.20
2018-02-19T18:26:49.193Z,6.40
2018-02-19T18:29:18.230Z,6.00
2018-02-19T18:31:48.014Z,5.00
2018-02-19T18:34:17.135Z,5.80
2018-02-19T18:36:46.778Z,6.40
2018-02-19T18:39:16.221Z,5.47
2018-02-19T18:41:45.830Z,6.93
2018-02-19T18:44:14.962Z,7.80
2018-02-19T18:46:44.237Z,5.73
2018-02-19T18:49:14.256Z,6.17
2018-02-19T18:51:44.042Z,6.03
2018-02-19T18:54:13.143Z,6.00
2018-02-19T18:56:42.210Z,5.20
2018-02-19T18:59:11.450Z,9.90
2018-02-19T19:01:41.802Z,5.83
2018-02-19T19:04:12.164Z,5.70
2018-02-19T19:06:41.258Z,5.87
2018-02-19T19:09:22.543Z,6.07
2018-02-19T19:11:51.763Z,5.47
2018-02-19T19:14:20.851Z,5.70
2018-02-19T19:16:49.928Z,5.30
2018-02-19T19:19:19.441Z,5.60
2018-02-19T19:21:48.757Z,5.43
2018-02-19T19:24:18.751Z,5.53
2018-02-19T19:26:48.261Z,5.53
2018-02-19T19:29:17.464Z,7.40
2018-02-19T19:31:46.720Z,6.27
2018-02-19T19:34:16.543Z,9.00
2018-02-19T19:36:45.751Z,7.00
2018-02-19T19:39:14.794Z,6.10
2018-02-19T19:41:44.576Z,5.07
2018-02-19T19:44:14.552Z,6.00
2018-02-19T19:46:43.805Z,5.93
2018-02-19T19:49:12.856Z,5.20
2018-02-19T19:51:40.414Z,5.40
2018-02-19T19:54:08.418Z,5.80
2018-02-19T19:56:36.254Z,5.67
2018-02-19T19:59:03.694Z,6.13
2018-02-19T20:01:32.543Z,4.90
2018-02-19T20:04:00.289Z,5.10
2018-02-19T20:06:27.842Z,6.03
2018-02-19T20:08:55.315Z,5.10
2018-02-19T20:11:22.846Z,5.43
2018-02-19T20:13:50.369Z,4.90
2018-02-19T20:16:18.141Z,5.93
2018-02-19T20:18:45.774Z,4.70
2018-02-19T20:21:13.227Z,5.50
2018-02-19T20:23:40.724Z,7.47
2018-02-19T20:26:09.147Z,5.77
2018-02-19T20:28:36.730Z,4.30
2018-02-19T20:31:04.197Z,4.93
2018-02-19T20:33:31.753Z,4.70
2018-02-19T20:36:00.620Z,4.73
2018-02-19T20:38:32.579Z,4.33
2018-02-19T20:41:00.116Z,4.20
2018-02-19T20:43:27.646Z,5.43
2018-02-19T20:45:55.262Z,4.17
2018-02-19T20:48:22.710Z,4.43
2018-02-19T20:50:50.170Z,4.60
2018-02-19T20:53:18.114Z,4.60
2018-02-19T20:55:46.342Z,5.07
2018-02-19T20:58:17.851Z,4.67
2018-02-19T21:00:45.731Z,4.40
2018-02-19T21:03:19.429Z,4.10
2018-02-19T21:05:46.918Z,3.90
2018-02-19T21:08:20.848Z,4.50
2018-02-19T21:10:49.067Z,6.40
2018-02-19T21:13:16.647Z,4.60
2018-02-19T21:15:45.220Z,4.43
2018-02-19T21:18:12.804Z,5.33
2018-02-19T21:20:40.251Z,4.63
2018-02-19T21:23:07.801Z,4.20
2018-02-19T21:25:35.221Z,5.00
2018-02-19T21:28:02.660Z,5.03
2018-02-19T21:30:31.302Z,4.40
2018-02-19T21:32:59.140Z,4.90
2018-02-19T21:35:26.634Z,4.40
2018-02-19T21:37:54.166Z,4.23
2018-02-19T21:40:21.616Z,4.40
2018-02-19T21:42:50.303Z,7.50
2018-02-19T21:45:17.723Z,4.63
2018-02-19T21:47:46.033Z,5.13
2018-02-19T21:50:14.545Z,6.77
2018-02-19T21:52:42.058Z,4.83
2018-02-19T21:55:10.707Z,4.93
2018-02-19T21:57:38.818Z,5.07
2018-02-19T22:00:06.340Z,5.17
2018-02-19T22:02:33.919Z,4.80
2018-02-19T22:05:01.537Z,5.93
2018-02-19T22:07:29.196Z,4.50
2018-02-19T22:09:57.488Z,4.70
2018-02-19T22:12:24.979Z,4.30
2018-02-19T22:14:52.906Z,4.70
2018-02-19T22:17:20.778Z,5.93
2018-02-19T22:19:48.636Z,5.37
2018-02-19T22:22:16.492Z,5.93
2018-02-19T22:24:44.208Z,4.83
2018-02-19T22:27:13.027Z,5.90
2018-02-19T22:29:40.610Z,5.57
2018-02-19T22:32:08.896Z,5.43
2018-02-19T22:34:36.430Z,5.23
2018-02-19T22:37:03.964Z,4.57
2018-02-19T22:39:34.108Z,6.97
2018-02-19T22:42:01.947Z,4.70
2018-02-19T22:44:29.661Z,4.80
2018-02-19T22:46:57.526Z,4.37
2018-02-19T22:49:25.944Z,6.77
2018-02-19T22:51:54.392Z,5.57
2018-02-19T22:54:22.527Z,4.50
2018-02-19T22:56:50.793Z,5.23
2018-02-19T22:59:19.218Z,7.90
2018-02-19T23:01:47.673Z,4.33
2018-02-19T23:04:15.669Z,7.00
2018-02-19T23:06:43.290Z,4.40
2018-02-19T23:09:11.702Z,12.00
2018-02-19T23:11:39.294Z,7.90
2018-02-19T23:14:07.580Z,6.50
2018-02-19T23:16:35.098Z,6.23
2018-02-19T23:19:03.492Z,5.97
2018-02-19T23:21:31.023Z,8.50
2018-02-19T23:23:58.448Z,6.53
2018-02-19T23:26:26.645Z,5.40
2018-02-19T23:28:54.338Z,11.10
2018-02-19T23:31:22.841Z,9.30
2018-02-19T23:33:51.269Z,6.87
2018-02-19T23:36:19.064Z,6.73
2018-02-19T23:38:46.617Z,8.13
2018-02-19T23:41:14.460Z,7.60
2018-02-19T23:43:42.096Z,5.50
2018-02-19T23:46:09.552Z,7.77
2018-02-19T23:48:37.367Z,6.50
2018-02-19T23:51:05.738Z,6.70
2018-02-19T23:53:33.186Z,4.70
2018-02-19T23:56:00.684Z,4.97
2018-02-19T23:58:28.118Z,5.60
